Latest Weather Observations for Hay Point

IDQ60801

Issued at 6:32 am EST Saturday 23 September 2017 (issued every 30 minutes, with the page automatically refreshed every 10 minutes)

About weather observations | Map of weather stations | Latest weather observations for QLD | Other Formats
Station Details ID: 033317 Name: HAY POINT Lat: -21.29 Lon: 149.30 Height: 7.0 m
Data from the previous 72 hours. | See also: Recent months for locations in Queensland
Date/Time
EST
Temp
°C
App
Temp
°C
Dew
Point
°C
Rel
Hum
%
Delta-T
°C
Wind Press
QNH
hPa
Press
MSL
hPa
Rain since
9am
mm
Dir  Spd
km/h
Gust
km/h
Spd
kts
Gust
kts
23/06:30am - - - - - NW 9 11 5 6 - - -
23/06:00am - - - - - NNE 17 20 9 11 - - -
23/05:30am - - - - - NNE 17 20 9 11 - - -
23/05:00am - - - - - NNE 17 19 9 10 - - -
23/04:30am - - - - - NE 17 19 9 10 - - -
23/04:00am - - - - - NNE 13 17 7 9 - - -
23/03:30am - - - - - NNE 15 17 8 9 - - -
23/03:00am - - - - - NNE 15 19 8 10 - - -
23/02:30am - - - - - NNE 15 17 8 9 - - -
23/02:00am - - - - - NNE 13 15 7 8 - - -
23/01:30am - - - - - NNE 15 17 8 9 - - -
23/01:00am - - - - - NNE 17 19 9 10 - - -
23/12:30am - - - - - NNE 17 20 9 11 - - -
23/12:00am - - - - - NNE 19 22 10 12 - - -
 
Date/Time
EST
Temp
°C
App
Temp
°C
Dew
Point
°C
Rel
Hum
%
Delta-T
°C
Wind Press
QNH
hPa
Press
MSL
hPa
Rain since
9am
mm
Dir  Spd
km/h
Gust
km/h
Spd
kts
Gust
kts
22/11:30pm - - - - - NE 19 22 10 12 - - -
22/11:00pm - - - - - NNE 19 22 10 12 - - -
22/10:30pm - - - - - NNE 17 20 9 11 - - -
22/10:00pm - - - - - NE 19 22 10 12 - - -
22/09:30pm - - - - - NNE 19 22 10 12 - - -
22/09:00pm - - - - - NE 17 20 9 11 - - -
22/08:30pm - - - - - NE 20 24 11 13 - - -
22/08:00pm - - - - - NE 19 20 10 11 - - -
22/07:30pm - - - - - NE 20 24 11 13 - - -
22/07:00pm - - - - - NE 20 22 11 12 - - -
22/06:30pm - - - - - NE 20 26 11 14 - - -
22/06:00pm - - - - - NE 20 24 11 13 - - -
22/05:30pm - - - - - NE 20 24 11 13 - - -
22/05:00pm - - - - - NE 22 24 12 13 - - -
22/04:30pm - - - - - NE 20 24 11 13 - - -
22/04:00pm - - - - - NE 20 24 11 13 - - -
22/03:30pm - - - - - NNE 20 26 11 14 - - -
22/03:00pm - - - - - NE 20 24 11 13 - - -
22/02:30pm - - - - - NNE 20 22 11 12 - - -
22/02:00pm - - - - - NNE 20 24 11 13 - - -
22/01:30pm - - - - - NNE 20 24 11 13 - - -
22/01:00pm - - - - - NNE 17 20 9 11 - - -
22/12:30pm - - - - - NE 11 13 6 7 - - -
22/12:00pm - - - - - NE 9 11 5 6 - - -
22/11:30am - - - - - NE 11 13 6 7 - - -
22/11:00am - - - - - NE 11 13 6 7 - - -
22/10:30am - - - - - NE 11 13 6 7 - - -
22/10:00am - - - - - NNE 9 11 5 6 - - -
22/09:30am - - - - - N 9 11 5 6 - - -
22/09:00am - - - - - N 11 13 6 7 - - -
22/08:30am - - - - - NNW 9 13 5 7 - - -
22/08:00am - - - - - NNW 9 13 5 7 - - -
22/07:30am - - - - - WNW 9 11 5 6 - - -
22/07:00am - - - - - W 9 11 5 6 - - -
22/06:30am - - - - - WNW 11 13 6 7 - - -
22/06:00am - - - - - W 9 11 5 6 - - -
22/05:30am - - - - - W 11 13 6 7 - - -
22/05:00am - - - - - WNW 9 13 5 7 - - -
22/04:30am - - - - - WNW 7 11 4 6 - - -
22/04:00am - - - - - NNE 20 24 11 13 - - -
22/03:30am - - - - - NNE 24 26 13 14 - - -
22/03:00am - - - - - NNE 22 26 12 14 - - -
22/02:30am - - - - - NNE 24 28 13 15 - - -
22/02:00am - - - - - NNE 19 22 10 12 - - -
22/01:30am - - - - - NNE 17 20 9 11 - - -
22/01:00am - - - - - N 17 19 9 10 - - -
22/12:30am - - - - - N 19 22 10 12 - - -
22/12:00am - - - - - NNE 22 26 12 14 - - -
 
Date/Time
EST
Temp
°C
App
Temp
°C
Dew
Point
°C
Rel
Hum
%
Delta-T
°C
Wind Press
QNH
hPa
Press
MSL
hPa
Rain since
9am
mm
Dir  Spd
km/h
Gust
km/h
Spd
kts
Gust
kts
21/11:30pm - - - - - NNE 24 28 13 15 - - -
21/11:00pm - - - - - NNE 19 24 10 13 - - -
21/10:30pm - - - - - NNE 19 22 10 12 - - -
21/10:00pm - - - - - NNE 15 17 8 9 - - -
21/09:30pm - - - - - NE 17 19 9 10 - - -
21/09:00pm - - - - - NE 19 22 10 12 - - -
21/08:30pm - - - - - NE 17 19 9 10 - - -
21/08:00pm - - - - - NE 17 19 9 10 - - -
21/07:30pm - - - - - NE 15 17 8 9 - - -
21/07:00pm - - - - - NE 19 24 10 13 - - -
21/06:30pm - - - - - NE 15 17 8 9 - - -
21/06:00pm - - - - - NE 15 19 8 10 - - -
21/05:30pm - - - - - ENE 17 17 9 9 - - -
21/05:00pm - - - - - ENE 13 15 7 8 - - -
21/04:30pm - - - - - NE 17 19 9 10 - - -
21/04:00pm - - - - - ENE 15 17 8 9 - - -
21/03:30pm - - - - - E 11 13 6 7 - - -
21/03:00pm - - - - - ESE 9 13 5 7 - - -
21/02:30pm - - - - - ESE 7 11 4 6 - - -
21/02:00pm - - - - - ESE 9 11 5 6 - - -
21/01:30pm - - - - - SE 11 13 6 7 - - -
21/01:00pm - - - - - SE 11 13 6 7 - - -
21/12:30pm - - - - - ESE 11 13 6 7 - - -
21/12:00pm - - - - - ESE 11 13 6 7 - - -
21/11:30am - - - - - ESE 11 13 6 7 - - -
21/11:00am - - - - - E 9 11 5 6 - - -
21/10:30am - - - - - NNE 7 7 4 4 - - -
21/10:00am - - - - - NE 7 9 4 5 - - -
21/09:30am - - - - - NNW 11 15 6 8 - - -
21/09:00am - - - - - NW 13 17 7 9 - - -
21/08:30am - - - - - W 11 17 6 9 - - -
21/08:00am - - - - - W 13 19 7 10 - - -
21/07:30am - - - - - WSW 15 17 8 9 - - -
21/07:00am - - - - - WSW 15 17 8 9 - - -
21/06:30am - - - - - WNW 17 20 9 11 - - -
21/06:00am - - - - - W 13 15 7 8 - - -
21/05:30am - - - - - W 13 15 7 8 - - -
21/05:00am - - - - - W 11 13 6 7 - - -
21/04:30am - - - - - W 13 15 7 8 - - -
21/04:00am - - - - - W 11 15 6 8 - - -
21/03:30am - - - - - WSW 17 19 9 10 - - -
21/03:00am - - - - - WSW 13 15 7 8 - - -
21/02:30am - - - - - W 11 15 6 8 - - -
21/02:00am - - - - - W 11 15 6 8 - - -
21/01:30am - - - - - W 11 13 6 7 - - -
21/01:00am - - - - - W 13 13 7 7 - - -
21/12:30am - - - - - WNW 13 17 7 9 - - -
21/12:00am - - - - - WSW 11 13 6 7 - - -
 
Date/Time
EST
Temp
°C
App
Temp
°C
Dew
Point
°C
Rel
Hum
%
Delta-T
°C
Wind Press
QNH
hPa
Press
MSL
hPa
Rain since
9am
mm
Dir  Spd
km/h
Gust
km/h
Spd
kts
Gust
kts
20/11:30pm - - - - - WSW 13 15 7 8 - - -
20/11:00pm - - - - - W 11 13 6 7 - - -
20/10:30pm - - - - - W 11 13 6 7 - - -
20/10:00pm - - - - - NNW 11 15 6 8 - - -
20/09:30pm - - - - - N 13 17 7 9 - - -
20/09:00pm - - - - - N 13 17 7 9 - - -
20/08:30pm - - - - - N 15 17 8 9 - - -
20/08:00pm - - - - - N 15 17 8 9 - - -
20/07:30pm - - - - - NNE 17 19 9 10 - - -
20/07:00pm - - - - - NNE 17 20 9 11 - - -
20/06:30pm - - - - - NE 19 20 10 11 - - -
20/06:00pm - - - - - NE 19 20 10 11 - - -
20/05:30pm - - - - - NE 19 22 10 12 - - -
20/05:00pm - - - - - ENE 19 20 10 11 - - -
20/04:30pm - - - - - ENE 19 20 10 11 - - -
20/04:00pm - - - - - ENE 22 26 12 14 - - -
20/03:30pm - - - - - ENE 22 26 12 14 - - -
20/03:00pm - - - - - ENE 24 26 13 14 - - -
20/02:30pm - - - - - E 24 26 13 14 - - -
20/02:00pm - - - - - E 24 28 13 15 - - -
20/01:30pm - - - - - E 24 26 13 14 - - -
20/01:00pm - - - - - E 24 26 13 14 - - -
20/12:30pm - - - - - ESE 24 28 13 15 - - -
20/12:00pm - - - - - E 20 22 11 12 - - -
20/11:30am - - - - - ESE 20 24 11 13 - - -
20/11:00am - - - - - ESE 19 20 10 11 - - -
20/10:30am - - - - - E 15 17 8 9 - - -
20/10:00am - - - - - E 13 13 7 7 - - -
20/09:30am - - - - - E 13 15 7 8 - - -
20/09:00am - - - - - ESE 11 13 6 7 - - -
20/08:30am - - - - - S 11 13 6 7 - - -
20/08:00am - - - - - SSW 11 13 6 7 - - -
20/07:30am - - - - - SSW 13 15 7 8 - - -
20/07:00am - - - - - SSW 11 13 6 7 - - -

Other Formats:

Comma delimited format used in spreadsheet applications
http://www.bom.gov.au/fwo/IDQ60801/IDQ60801.99367.axf

JavaScript Object Notation format (JSON) in row-major order
http://www.bom.gov.au/fwo/IDQ60801/IDQ60801.99367.json